Morses Line, Vermont
Current Conditions -  °F | °C
As of 9:55 AM on Sunday 21 Dec 2014 (Local Time) from KFSO Reporting Station
Haze Haze  
Wind Chill: 17°   Ceiling: 500
Heat Index: 17°   Visibility: 2mi
Dew Point: 15°   Wind: 0mph
Humidity: 92%   Direction: NA
Pressure: 30.38"   Gusts: NA
Location:  44.9656°N, 72.8975°W
Report Text: KFSO 211455Z AUTO 00000KT 2SM BR OVC005 M08/M10 A3038 RMK AO2 T10851096
Loading
Personal Weather Stations






























Interactive Weather Map New forecast layout! Learn more

10-Day Weather Forecast

Advertisements
Track Severe Weather on mobile